createdAt,value
2018-10-16T00:01:16.611Z,16.15
2018-10-16T00:03:45.699Z,16.15
2018-10-16T00:06:15.511Z,16.13
2018-10-16T00:08:44.629Z,16.12
2018-10-16T00:11:13.711Z,16.11
2018-10-16T00:13:42.851Z,16.12
2018-10-16T00:16:12.282Z,16.17
2018-10-16T00:18:41.367Z,16.21
2018-10-16T00:21:10.431Z,16.18
2018-10-16T00:23:39.475Z,16.22
2018-10-16T00:26:08.643Z,16.17
2018-10-16T00:28:37.677Z,16.16
2018-10-16T00:31:06.678Z,16.17
2018-10-16T00:33:35.892Z,16.21
2018-10-16T00:36:05.310Z,16.19
2018-10-16T00:38:34.430Z,16.19
2018-10-16T00:41:03.549Z,16.23
2018-10-16T00:43:32.589Z,16.23
2018-10-16T00:46:01.678Z,16.17
2018-10-16T00:48:30.794Z,16.19
2018-10-16T00:50:59.830Z,16.19
2018-10-16T00:53:28.819Z,16.16
2018-10-16T00:55:57.914Z,16.14
2018-10-16T00:58:26.955Z,16.09
2018-10-16T01:00:56.126Z,16.11
2018-10-16T01:03:25.151Z,16.11
2018-10-16T01:05:54.404Z,16.05
2018-10-16T01:08:23.438Z,16.13
2018-10-16T01:10:52.538Z,16.11
2018-10-16T01:13:21.581Z,16.13
2018-10-16T01:15:50.625Z,16.17
2018-10-16T01:18:20.627Z,16.13
2018-10-16T01:20:49.620Z,16.11
2018-10-16T01:23:18.758Z,16.08
2018-10-16T01:25:48.067Z,16.13
2018-10-16T01:28:17.112Z,16.08
2018-10-16T01:30:46.106Z,16.07
2018-10-16T01:33:15.096Z,16.05
2018-10-16T01:35:44.090Z,16.00
2018-10-16T01:38:13.106Z,16.05
2018-10-16T01:40:42.176Z,16.01
2018-10-16T01:43:11.138Z,15.99
2018-10-16T01:45:40.188Z,15.94
2018-10-16T01:48:09.275Z,15.91
2018-10-16T01:50:38.403Z,15.92
2018-10-16T01:53:07.467Z,15.97
2018-10-16T01:55:36.588Z,15.97
2018-10-16T01:58:05.641Z,16.06
2018-10-16T02:00:34.655Z,16.05
2018-10-16T02:03:03.766Z,16.08
2018-10-16T02:05:32.843Z,16.09
2018-10-16T02:08:01.817Z,16.07
2018-10-16T02:10:30.838Z,16.04
2018-10-16T02:12:59.778Z,16.04
2018-10-16T02:15:28.849Z,16.05
2018-10-16T02:17:57.920Z,16.09
2018-10-16T02:20:26.911Z,16.06
2018-10-16T02:22:55.898Z,16.04
2018-10-16T02:25:24.899Z,15.99
2018-10-16T02:27:53.862Z,15.99
2018-10-16T02:30:22.972Z,16.01
2018-10-16T02:32:52.001Z,16.01
2018-10-16T02:35:21.123Z,16.02
2018-10-16T02:37:50.146Z,15.99
2018-10-16T02:40:19.179Z,16.00
2018-10-16T02:42:48.183Z,16.03
2018-10-16T02:45:17.238Z,16.03
2018-10-16T02:47:46.278Z,16.01
2018-10-16T02:50:15.376Z,15.99
2018-10-16T02:52:44.438Z,16.00
2018-10-16T02:55:13.464Z,15.99
2018-10-16T02:57:42.497Z,16.03
2018-10-16T03:00:11.533Z,16.05
2018-10-16T03:02:40.719Z,16.04
2018-10-16T03:05:09.743Z,16.03
2018-10-16T03:07:38.801Z,16.03
2018-10-16T03:10:07.902Z,16.00
2018-10-16T03:12:38.340Z,16.04
2018-10-16T03:15:09.569Z,15.99
2018-10-16T03:17:38.865Z,16.01
2018-10-16T03:20:08.558Z,16.00
2018-10-16T03:22:38.066Z,15.95
2018-10-16T03:25:08.243Z,15.93
2018-10-16T03:27:37.503Z,15.94
2018-10-16T03:30:07.960Z,15.93
2018-10-16T03:32:37.182Z,15.90
2018-10-16T03:35:06.927Z,15.92
2018-10-16T03:37:36.167Z,15.94
2018-10-16T03:40:05.173Z,15.89
2018-10-16T03:42:34.234Z,15.88
2018-10-16T03:45:03.258Z,15.87
2018-10-16T03:47:32.233Z,15.89
2018-10-16T03:50:01.277Z,15.85
2018-10-16T03:52:30.388Z,15.85
2018-10-16T03:54:59.446Z,15.80
2018-10-16T03:57:28.625Z,15.81
2018-10-16T03:59:57.594Z,15.80
2018-10-16T04:02:26.715Z,15.77
2018-10-16T04:04:55.720Z,15.76
2018-10-16T04:07:24.876Z,15.76
2018-10-16T04:09:53.901Z,15.74
2018-10-16T04:12:22.954Z,15.78
2018-10-16T04:14:52.300Z,15.73
2018-10-16T04:17:21.357Z,15.72
2018-10-16T04:19:50.277Z,15.67
2018-10-16T04:22:19.314Z,15.65
2018-10-16T04:24:48.287Z,15.66
2018-10-16T04:27:17.299Z,15.64
2018-10-16T04:29:46.342Z,15.66
2018-10-16T04:32:15.346Z,15.66
2018-10-16T04:34:44.351Z,15.66
2018-10-16T04:37:13.357Z,15.66
2018-10-16T04:39:42.315Z,15.63
2018-10-16T04:42:11.311Z,15.69
2018-10-16T04:44:40.300Z,15.63
2018-10-16T04:47:09.448Z,15.64
2018-10-16T04:49:38.491Z,15.61
2018-10-16T04:52:07.490Z,15.60
2018-10-16T04:54:36.502Z,15.61
2018-10-16T04:57:05.503Z,15.60
2018-10-16T04:59:34.465Z,15.60
2018-10-16T05:02:03.499Z,15.61
2018-10-16T05:04:32.440Z,15.58
2018-10-16T05:07:01.457Z,15.59
2018-10-16T05:09:30.541Z,15.60
2018-10-16T05:12:00.071Z,15.59
2018-10-16T05:14:29.046Z,15.57
2018-10-16T05:16:58.064Z,15.54
2018-10-16T05:19:27.040Z,15.55
2018-10-16T05:21:56.077Z,15.55
2018-10-16T05:24:25.063Z,15.58
2018-10-16T05:26:54.168Z,15.56
2018-10-16T05:29:24.208Z,15.54
2018-10-16T05:31:54.266Z,15.55
2018-10-16T05:34:23.287Z,15.53
2018-10-16T05:36:52.294Z,15.52
2018-10-16T05:39:22.317Z,15.51
2018-10-16T05:41:51.375Z,15.46
2018-10-16T05:44:20.348Z,15.46
2018-10-16T05:46:49.335Z,15.46
2018-10-16T05:49:18.374Z,15.44
2018-10-16T05:51:47.346Z,15.43
2018-10-16T05:54:16.426Z,15.45
2018-10-16T05:56:45.575Z,15.46
2018-10-16T05:59:14.615Z,15.44
2018-10-16T06:01:43.738Z,15.51
2018-10-16T06:04:12.731Z,15.53
2018-10-16T06:06:41.747Z,15.67
2018-10-16T06:09:10.808Z,15.84
2018-10-16T06:11:39.804Z,15.97
2018-10-16T06:14:08.845Z,16.13
2018-10-16T06:16:37.892Z,16.28
2018-10-16T06:19:06.885Z,16.32
2018-10-16T06:21:35.871Z,16.36
2018-10-16T06:24:05.072Z,16.36
2018-10-16T06:26:34.220Z,16.33
2018-10-16T06:29:03.067Z,16.07
2018-10-16T06:31:32.089Z,15.94
2018-10-16T06:34:01.068Z,15.87
2018-10-16T06:36:30.061Z,15.77
2018-10-16T06:38:59.166Z,15.74
2018-10-16T06:41:28.198Z,15.79
2018-10-16T06:43:57.149Z,15.86
2018-10-16T06:46:26.180Z,15.77
2018-10-16T06:48:55.399Z,15.72
2018-10-16T06:51:24.327Z,15.80
2018-10-16T06:53:53.460Z,15.82
2018-10-16T06:56:22.451Z,15.79
2018-10-16T06:58:51.399Z,15.76
2018-10-16T07:01:20.415Z,15.73
2018-10-16T07:03:49.407Z,15.77
2018-10-16T07:06:18.400Z,15.69
2018-10-16T07:08:47.420Z,15.68
2018-10-16T07:11:16.408Z,15.65
2018-10-16T07:13:45.675Z,15.56
2018-10-16T07:16:14.704Z,15.64
2018-10-16T07:18:43.760Z,15.73
2018-10-16T07:21:13.091Z,15.76
2018-10-16T07:23:42.116Z,15.75
2018-10-16T07:26:11.062Z,15.78
2018-10-16T07:28:40.076Z,15.76
2018-10-16T07:31:09.048Z,15.81
2018-10-16T07:33:38.058Z,15.96
2018-10-16T07:36:07.039Z,15.91
2018-10-16T07:38:36.242Z,16.11
2018-10-16T07:41:05.152Z,16.94
2018-10-16T07:43:34.152Z,17.39
2018-10-16T07:46:03.265Z,17.13
2018-10-16T07:48:32.282Z,17.27
2018-10-16T07:51:01.342Z,17.26
2018-10-16T07:53:30.364Z,16.83
2018-10-16T07:55:59.434Z,17.00
2018-10-16T07:58:28.431Z,17.25
2018-10-16T08:00:57.504Z,17.35
2018-10-16T08:03:26.527Z,17.84
2018-10-16T08:05:55.569Z,18.17
2018-10-16T08:08:24.578Z,18.80
2018-10-16T08:10:53.600Z,19.42
2018-10-16T08:13:22.663Z,20.47
2018-10-16T08:15:51.695Z,21.11
2018-10-16T08:18:20.640Z,20.94
2018-10-16T08:20:49.688Z,20.89
2018-10-16T08:23:18.667Z,20.29
2018-10-16T08:25:47.651Z,21.11
2018-10-16T08:28:16.623Z,21.00
2018-10-16T08:30:45.740Z,20.96
2018-10-16T08:33:14.730Z,21.23
2018-10-16T08:35:43.776Z,21.28
2018-10-16T08:39:19.342Z,20.86
2018-10-16T08:42:42.750Z,20.99
2018-10-16T08:45:23.423Z,21.07
2018-10-16T08:48:03.939Z,21.96
2018-10-16T08:51:53.657Z,21.91
2018-10-16T08:54:22.695Z,21.74
2018-10-16T08:56:51.764Z,21.69
2018-10-16T08:59:21.066Z,21.07
2018-10-16T09:01:50.057Z,20.64
2018-10-16T09:04:19.098Z,20.83
2018-10-16T09:06:48.217Z,20.07
2018-10-16T09:09:18.176Z,21.20
2018-10-16T09:11:48.317Z,21.45
2018-10-16T09:14:17.791Z,20.61
2018-10-16T09:16:46.782Z,20.52
2018-10-16T09:19:15.795Z,20.60
2018-10-16T09:27:27.286Z,22.58
2018-10-16T09:29:56.353Z,22.59
2018-10-16T09:32:25.923Z,22.88
2018-10-16T09:34:54.936Z,22.55
2018-10-16T09:37:23.881Z,22.25
2018-10-16T09:39:52.883Z,22.16
2018-10-16T09:42:21.868Z,22.73
2018-10-16T09:44:50.868Z,22.80
2018-10-16T09:47:19.863Z,23.41
2018-10-16T09:49:48.876Z,24.38
2018-10-16T09:52:17.895Z,24.95
2018-10-16T09:54:47.844Z,25.38
2018-10-16T09:57:16.872Z,24.87
2018-10-16T09:59:45.905Z,26.03
2018-10-16T10:02:14.967Z,25.63
2018-10-16T10:04:43.989Z,23.51
2018-10-16T10:07:13.008Z,24.34
2018-10-16T10:09:42.054Z,24.40
2018-10-16T10:12:11.043Z,25.54
2018-10-16T10:14:40.094Z,25.20
2018-10-16T10:17:09.114Z,25.49
2018-10-16T10:19:38.118Z,24.99
2018-10-16T10:22:07.156Z,25.34
2018-10-16T10:24:36.143Z,27.48
2018-10-16T10:27:05.119Z,25.99
2018-10-16T10:29:34.163Z,27.40
2018-10-16T10:32:03.104Z,26.97
2018-10-16T10:34:32.140Z,26.39
2018-10-16T10:37:01.243Z,25.86
2018-10-16T10:39:30.380Z,26.22
2018-10-16T10:41:59.411Z,26.97
2018-10-16T10:44:28.435Z,25.78
2018-10-16T10:46:58.163Z,25.57
2018-10-16T10:49:27.184Z,27.00
2018-10-16T10:51:56.275Z,28.04
2018-10-16T10:54:25.278Z,27.51
2018-10-16T10:56:54.523Z,27.10
2018-10-16T10:59:23.378Z,26.89
2018-10-16T11:01:56.399Z,26.34
2018-10-16T11:04:25.597Z,26.69
2018-10-16T11:06:54.625Z,26.95
2018-10-16T11:09:23.632Z,26.28
2018-10-16T11:11:54.587Z,27.27
2018-10-16T11:14:24.484Z,26.83
2018-10-16T11:16:53.479Z,27.59
2018-10-16T11:19:23.336Z,28.25
2018-10-16T11:21:52.859Z,28.57
2018-10-16T11:24:21.904Z,28.08
2018-10-16T11:26:50.935Z,27.89
2018-10-16T11:29:19.903Z,26.99
2018-10-16T11:31:48.867Z,26.45
2018-10-16T11:34:17.900Z,24.89
2018-10-16T11:36:46.917Z,24.89
2018-10-16T11:39:15.862Z,26.23
2018-10-16T11:41:44.866Z,26.74
2018-10-16T11:44:13.878Z,27.38
2018-10-16T11:46:43.285Z,28.28
2018-10-16T11:49:12.288Z,28.20
2018-10-16T11:51:41.246Z,28.26
2018-10-16T11:54:10.321Z,28.54
2018-10-16T11:56:39.534Z,29.45
2018-10-16T11:59:08.605Z,28.77
2018-10-16T12:01:37.548Z,29.02
2018-10-16T12:04:06.545Z,29.08
2018-10-16T12:06:35.560Z,28.58
2018-10-16T12:09:07.987Z,28.91
2018-10-16T12:11:37.333Z,28.28
2018-10-16T12:14:06.995Z,27.94
2018-10-16T12:16:41.470Z,27.59
2018-10-16T12:19:15.375Z,27.33
2018-10-16T12:21:44.265Z,27.73
2018-10-16T12:24:13.376Z,27.49
2018-10-16T12:26:42.259Z,28.31
2018-10-16T12:29:11.253Z,28.06
2018-10-16T12:31:40.229Z,29.10
2018-10-16T12:34:09.209Z,28.11
2018-10-16T12:36:38.232Z,27.83
2018-10-16T12:39:08.801Z,28.87
2018-10-16T12:41:37.775Z,28.97
2018-10-16T12:44:06.929Z,27.89
2018-10-16T12:46:35.916Z,27.80
2018-10-16T12:49:04.961Z,29.09
2018-10-16T12:51:34.620Z,28.89
2018-10-16T12:54:03.689Z,28.37
2018-10-16T12:56:32.660Z,28.45
2018-10-16T12:59:01.849Z,28.33
2018-10-16T13:01:30.719Z,29.00
2018-10-16T13:03:59.656Z,28.97
2018-10-16T13:06:28.705Z,27.44
2018-10-16T13:08:57.883Z,27.70
2018-10-16T13:11:26.917Z,27.62
2018-10-16T13:13:55.927Z,28.43
2018-10-16T13:16:25.036Z,28.86
2018-10-16T13:18:54.134Z,29.63
2018-10-16T13:21:23.142Z,28.64
2018-10-16T13:23:52.333Z,29.58
2018-10-16T13:26:21.253Z,29.32
2018-10-16T13:28:50.242Z,29.33
2018-10-16T13:31:19.280Z,28.50
2018-10-16T13:33:48.359Z,28.48
2018-10-16T13:36:17.317Z,27.77
2018-10-16T13:38:46.523Z,26.99
2018-10-16T13:41:15.579Z,26.96
2018-10-16T13:43:44.650Z,27.22
2018-10-16T13:46:13.661Z,27.11
2018-10-16T13:48:42.650Z,27.08
2018-10-16T13:51:11.749Z,26.81
2018-10-16T13:53:40.720Z,26.98
2018-10-16T13:56:09.911Z,26.32
2018-10-16T13:58:38.798Z,26.37
2018-10-16T14:01:07.775Z,26.38
2018-10-16T14:03:36.772Z,26.30
2018-10-16T14:06:05.779Z,26.26
2018-10-16T14:08:34.701Z,26.40
2018-10-16T14:11:03.659Z,26.48
2018-10-16T14:13:32.666Z,26.00
2018-10-16T14:16:01.714Z,26.43
2018-10-16T14:18:30.649Z,26.05
2018-10-16T14:20:59.637Z,25.94
2018-10-16T14:23:28.665Z,26.57
2018-10-16T14:25:57.661Z,26.22
2018-10-16T14:28:26.680Z,25.95
2018-10-16T14:30:55.649Z,26.04
2018-10-16T14:33:24.651Z,25.86
2018-10-16T14:35:53.786Z,25.84
2018-10-16T14:38:23.974Z,25.51
2018-10-16T14:40:56.875Z,25.50
2018-10-16T14:43:26.859Z,25.30
2018-10-16T14:46:00.135Z,25.44
2018-10-16T14:48:29.246Z,25.62
2018-10-16T14:50:58.323Z,25.35
2018-10-16T14:53:27.311Z,25.60
2018-10-16T14:55:56.373Z,25.14
2018-10-16T14:58:25.339Z,25.37
2018-10-16T15:00:54.438Z,25.34
2018-10-16T15:03:23.400Z,25.56
2018-10-16T15:05:52.435Z,25.01
2018-10-16T15:08:21.464Z,24.53
2018-10-16T15:10:50.463Z,24.27
2018-10-16T15:13:19.492Z,23.95
2018-10-16T15:15:48.443Z,23.68
2018-10-16T15:18:17.379Z,23.35
2018-10-16T15:20:46.340Z,23.23
2018-10-16T15:23:15.352Z,22.89
2018-10-16T15:25:44.370Z,22.72
2018-10-16T15:28:13.568Z,22.65
2018-10-16T15:30:42.526Z,22.34
2018-10-16T15:33:11.528Z,22.18
2018-10-16T15:35:40.689Z,21.99
2018-10-16T15:38:09.643Z,21.85
2018-10-16T15:40:38.644Z,21.66
2018-10-16T15:43:07.750Z,21.54
2018-10-16T15:45:36.821Z,21.31
2018-10-16T15:48:06.117Z,21.18
2018-10-16T15:50:35.336Z,21.03
2018-10-16T15:53:04.292Z,21.00
2018-10-16T15:55:33.297Z,20.73
2018-10-16T15:58:02.423Z,20.72
2018-10-16T16:00:31.464Z,20.22
2018-10-16T16:03:01.067Z,20.23
2018-10-16T16:05:30.025Z,19.82
2018-10-16T16:07:58.976Z,19.75
2018-10-16T16:10:27.963Z,19.71
2018-10-16T16:12:56.971Z,19.48
2018-10-16T16:15:25.944Z,19.34
2018-10-16T16:17:55.026Z,19.14
2018-10-16T16:20:23.996Z,19.01
2018-10-16T16:22:52.947Z,18.80
2018-10-16T16:25:21.932Z,18.72
2018-10-16T16:27:50.959Z,18.69
2018-10-16T16:30:19.920Z,18.65
2018-10-16T16:32:48.911Z,18.68
2018-10-16T16:35:17.872Z,18.37
2018-10-16T16:37:46.898Z,18.32
2018-10-16T16:40:15.900Z,18.19
2018-10-16T16:42:44.977Z,18.17
2018-10-16T16:45:14.158Z,17.99
2018-10-16T16:47:43.381Z,17.87
2018-10-16T16:50:13.012Z,17.72
2018-10-16T16:52:42.541Z,17.61
2018-10-16T16:55:13.284Z,17.55
2018-10-16T16:57:42.435Z,17.50
2018-10-16T17:00:12.556Z,17.36
2018-10-16T17:02:42.778Z,17.41
2018-10-16T17:05:12.310Z,17.21
2018-10-16T17:07:41.889Z,17.12
2018-10-16T17:10:11.801Z,17.12
2018-10-16T17:12:41.415Z,16.98
2018-10-16T17:15:12.970Z,16.84
2018-10-16T17:17:42.312Z,16.78
2018-10-16T17:20:11.934Z,16.74
2018-10-16T17:22:40.988Z,16.66
2018-10-16T17:25:11.995Z,16.71
2018-10-16T17:27:40.922Z,16.72
2018-10-16T17:30:11.877Z,16.83
2018-10-16T17:32:41.177Z,16.89
2018-10-16T17:35:11.185Z,16.62
2018-10-16T17:37:40.678Z,16.45
2018-10-16T17:40:11.720Z,16.48
2018-10-16T17:42:43.735Z,16.28
2018-10-16T17:45:14.184Z,16.09
2018-10-16T17:47:43.407Z,15.99
2018-10-16T17:50:14.467Z,15.88
2018-10-16T17:52:43.455Z,15.74
2018-10-16T17:55:13.160Z,15.56
2018-10-16T17:57:42.368Z,15.49
2018-10-16T18:00:14.777Z,15.40
2018-10-16T18:02:44.361Z,15.38
2018-10-16T18:05:13.786Z,15.32
2018-10-16T18:07:43.269Z,15.19
2018-10-16T18:10:12.235Z,15.16
2018-10-16T18:12:41.298Z,15.13
2018-10-16T18:15:12.049Z,15.08
2018-10-16T18:17:44.749Z,15.04
2018-10-16T18:20:15.177Z,15.04
2018-10-16T18:22:44.485Z,14.92
2018-10-16T18:25:13.586Z,14.87
2018-10-16T18:27:43.399Z,14.82
2018-10-16T18:30:12.703Z,14.75
2018-10-16T18:32:41.912Z,14.69
2018-10-16T18:35:11.423Z,14.67
2018-10-16T18:37:41.433Z,14.68
2018-10-16T18:40:11.237Z,14.62
2018-10-16T18:42:40.785Z,14.59
2018-10-16T18:45:11.306Z,14.48
2018-10-16T18:47:40.239Z,14.47
2018-10-16T18:50:10.615Z,14.45
2018-10-16T18:52:39.603Z,14.34
2018-10-16T18:55:10.004Z,14.39
2018-10-16T18:57:39.213Z,14.36
2018-10-16T19:00:10.453Z,14.36
2018-10-16T19:02:39.559Z,14.32
2018-10-16T19:05:09.362Z,14.28
2018-10-16T19:07:41.851Z,14.25
2018-10-16T19:10:10.987Z,14.17
2018-10-16T19:12:41.770Z,14.10
2018-10-16T19:15:13.307Z,14.05
2018-10-16T19:17:43.001Z,14.05
2018-10-16T19:20:13.253Z,14.07
2018-10-16T19:22:42.994Z,14.02
2018-10-16T19:25:13.109Z,14.02
2018-10-16T19:27:42.195Z,14.02
2018-10-16T19:30:12.004Z,13.97
2018-10-16T19:32:40.998Z,13.95
2018-10-16T19:35:11.418Z,13.89
2018-10-16T19:37:40.577Z,13.81
2018-10-16T19:40:09.504Z,13.66
2018-10-16T19:42:38.507Z,13.68
2018-10-16T19:45:08.147Z,13.70
2018-10-16T19:47:37.330Z,13.58
2018-10-16T19:50:06.784Z,13.49
2018-10-16T19:52:35.873Z,13.40
2018-10-16T19:55:05.424Z,13.37
2018-10-16T19:57:34.507Z,13.37
2018-10-16T20:00:03.605Z,13.22
2018-10-16T20:02:32.664Z,13.12
2018-10-16T20:05:01.659Z,13.20
2018-10-16T20:07:30.776Z,13.11
2018-10-16T20:09:59.777Z,13.12
2018-10-16T20:12:28.895Z,13.11
2018-10-16T20:14:57.991Z,13.07
2018-10-16T20:17:27.033Z,13.00
2018-10-16T20:19:56.064Z,12.81
2018-10-16T20:22:25.127Z,12.74
2018-10-16T20:24:54.125Z,12.74
2018-10-16T20:27:23.129Z,12.84
2018-10-16T20:29:52.111Z,12.78
2018-10-16T20:32:21.145Z,12.83
2018-10-16T20:34:50.124Z,12.78
2018-10-16T20:37:19.139Z,12.77
2018-10-16T20:39:48.116Z,12.80
2018-10-16T20:42:17.763Z,12.69
2018-10-16T20:44:46.806Z,12.65
2018-10-16T20:47:15.895Z,12.60
2018-10-16T20:49:44.938Z,12.55
2018-10-16T20:52:14.209Z,12.57
2018-10-16T20:54:43.280Z,12.61
2018-10-16T20:57:12.241Z,12.58
2018-10-16T20:59:42.538Z,12.54
2018-10-16T21:02:11.677Z,12.59
2018-10-16T21:04:40.766Z,12.47
2018-10-16T21:07:09.809Z,12.47
2018-10-16T21:09:39.005Z,12.43
2018-10-16T21:12:08.106Z,12.45
2018-10-16T21:14:37.127Z,12.42
2018-10-16T21:17:07.359Z,12.33
2018-10-16T21:19:36.795Z,12.34
2018-10-16T21:22:05.880Z,12.30
2018-10-16T21:24:35.202Z,12.28
2018-10-16T21:27:07.533Z,12.33
2018-10-16T21:29:36.534Z,12.31
2018-10-16T21:32:06.336Z,12.28
2018-10-16T21:34:35.327Z,12.29
2018-10-16T21:37:04.448Z,12.27
2018-10-16T21:39:33.539Z,12.23
2018-10-16T21:42:02.616Z,12.10
2018-10-16T21:44:31.702Z,12.10
2018-10-16T21:47:00.840Z,12.11
2018-10-16T21:49:29.898Z,12.08
2018-10-16T21:51:58.926Z,12.07
2018-10-16T21:54:27.879Z,12.00
2018-10-16T21:56:57.124Z,11.92
2018-10-16T21:59:26.275Z,11.96
2018-10-16T22:02:00.814Z,11.97
2018-10-16T22:04:29.794Z,11.91
2018-10-16T22:06:58.940Z,11.86
2018-10-16T22:09:27.910Z,11.84
2018-10-16T22:11:57.007Z,11.80
2018-10-16T22:14:26.002Z,11.79
2018-10-16T22:16:55.028Z,11.79
2018-10-16T22:19:24.080Z,11.77
2018-10-16T22:21:53.091Z,11.73
2018-10-16T22:24:22.103Z,11.69
2018-10-16T22:26:51.039Z,11.59
2018-10-16T22:29:20.102Z,11.58
2018-10-16T22:31:49.124Z,11.58
2018-10-16T22:34:18.165Z,11.59
2018-10-16T22:36:47.134Z,11.52
2018-10-16T22:39:16.156Z,11.51
2018-10-16T22:41:45.121Z,11.47
2018-10-16T22:44:14.122Z,11.44
2018-10-16T22:46:43.105Z,11.48
2018-10-16T22:49:12.114Z,11.45
2018-10-16T22:51:41.088Z,11.30
2018-10-16T22:54:10.122Z,11.30
2018-10-16T22:56:39.066Z,11.29
2018-10-16T22:59:08.154Z,11.26
2018-10-16T23:01:37.066Z,11.26
2018-10-16T23:04:06.129Z,11.23
2018-10-16T23:06:35.072Z,11.18
2018-10-16T23:09:05.108Z,11.13
2018-10-16T23:11:34.079Z,11.03
2018-10-16T23:14:03.288Z,10.95
2018-10-16T23:16:32.273Z,11.00
2018-10-16T23:19:01.320Z,10.95
2018-10-16T23:21:30.282Z,11.00
2018-10-16T23:23:59.278Z,10.87
2018-10-16T23:26:28.257Z,10.79
2018-10-16T23:28:57.272Z,10.80
2018-10-16T23:31:26.662Z,10.77
2018-10-16T23:33:55.666Z,10.75
2018-10-16T23:36:24.674Z,10.73
2018-10-16T23:38:53.637Z,10.74
2018-10-16T23:41:22.627Z,10.76
2018-10-16T23:43:51.626Z,10.78
2018-10-16T23:46:20.682Z,10.78
2018-10-16T23:48:49.717Z,10.77
2018-10-16T23:51:18.724Z,10.74
2018-10-16T23:53:47.778Z,10.67
2018-10-16T23:56:16.801Z,10.60
2018-10-16T23:58:45.844Z,10.58
